Time;durP1;ratioP1;P1;durP2;ratioP2;P2;SDS_P1;SDS_P2;PMS_P1;PMS_P2;Temp;Humidity;BMP_temperature;BMP_pressure;BME280_temperature;BME280_humidity;BME280_pressure;Samples;Min_cycle;Max_cycle;Signal;HPM_P1;HPM_P2
2023/07/10 00:01:13;;;;;;;0.00;0.00;;;;;;;22.42;67.49;151646.41;4926191;28;20234;-61
2023/07/10 00:03:41;;;;;;;0.00;0.00;;;;;;;22.38;68.22;151636.38;4933668;28;20286;-61
2023/07/10 00:06:14;;;;;;;0.00;0.00;;;;;;;22.40;67.43;151642.66;4926145;28;20673;-62
2023/07/10 00:08:42;;;;;;;0.00;0.00;;;;;;;22.37;68.44;151635.16;4929577;28;20228;-62
2023/07/10 00:11:15;;;;;;;0.00;0.00;;;;;;;22.25;68.86;151606.31;4929279;28;20322;-62
2023/07/10 00:13:42;;;;;;;0.00;0.00;;;;;;;22.22;68.54;151598.78;4928808;28;20239;-62
2023/07/10 00:16:15;;;;;;;0.00;0.00;;;;;;;22.15;68.90;151579.97;4931715;28;20215;-62
2023/07/10 00:18:41;;;;;;;0.00;0.00;;;;;;;22.19;69.69;151590.00;4933251;28;20235;-62
2023/07/10 00:21:12;;;;;;;0.00;0.00;;;;;;;22.14;70.23;151578.72;4931029;28;20321;-62
2023/07/10 00:23:38;;;;;;;0.00;0.00;;;;;;;22.04;70.19;151553.63;4932490;28;20270;-61
2023/07/10 00:26:15;;;;;;;0.00;0.00;;;;;;;21.95;69.77;151533.56;4928990;28;20235;-61
2023/07/10 00:28:42;;;;;;;0.00;0.00;;;;;;;21.95;70.21;151533.56;4924367;28;20232;-62
2023/07/10 00:31:13;;;;;;;0.00;0.00;;;;;;;21.87;71.12;151513.50;4926788;28;20234;-62
2023/07/10 00:33:39;;;;;;;0.00;0.00;;;;;;;21.85;71.11;151507.22;4894894;28;20767;-62
2023/07/10 00:36:30;;;;;;;0.00;0.00;;;;;;;21.81;71.09;151499.69;4932839;28;20227;-62
2023/07/10 00:38:57;;;;;;;0.00;0.00;;;;;;;21.78;71.35;151490.94;4933680;28;20245;-62
2023/07/10 00:41:32;;;;;;;0.00;0.00;;;;;;;21.80;71.12;151495.97;4932255;28;20243;-62
2023/07/10 00:44:03;;;;;;;0.00;0.00;;;;;;;21.82;70.50;151500.97;4927102;28;20227;-62
2023/07/10 00:46:35;;;;;;;0.00;0.00;;;;;;;21.82;70.21;151500.97;4926850;28;20278;-62
2023/07/10 00:49:08;;;;;;;0.00;0.00;;;;;;;21.80;70.10;151495.97;4916444;28;20285;-62
2023/07/10 00:51:42;;;;;;;0.00;0.00;;;;;;;21.84;69.54;151506.00;4932224;28;20237;-62
2023/07/10 00:54:18;;;;;;;0.00;0.00;;;;;;;21.86;69.29;151511.00;4926638;28;20239;-62
2023/07/10 00:56:47;;;;;;;0.00;0.00;;;;;;;21.85;68.88;151508.50;4910289;29;20242;-62
2023/07/10 00:59:22;;;;;;;0.00;0.00;;;;;;;21.82;69.88;151500.97;4929847;28;20241;-62
2023/07/10 01:02:18;;;;;;;0.00;0.00;;;;;;;21.85;69.50;151508.50;4923480;28;20237;-62
2023/07/10 01:04:47;;;;;;;0.00;0.00;;;;;;;21.84;69.80;151506.00;4926733;28;20230;-63
2023/07/10 01:07:17;;;;;;;0.00;0.00;;;;;;;21.86;71.95;151509.72;4914533;28;20230;-62
2023/07/10 01:09:47;;;;;;;0.00;0.00;;;;;;;21.80;71.18;151495.97;4933614;28;20229;-62
2023/07/10 01:12:15;;;;;;;0.00;0.00;;;;;;;21.77;70.47;151489.66;4930654;28;20242;-62
2023/07/10 01:14:42;;;;;;;0.00;0.00;;;;;;;21.75;70.48;151484.66;4914589;28;20819;-62
2023/07/10 01:17:09;;;;;;;0.00;0.00;;;;;;;21.76;72.38;151485.91;4933383;28;20638;-62
2023/07/10 01:19:38;;;;;;;0.00;0.00;;;;;;;21.76;72.30;151487.16;4918859;28;20234;-62
2023/07/10 01:22:09;;;;;;;0.00;0.00;;;;;;;21.79;72.94;151493.44;4918952;29;20603;-62
2023/07/10 01:24:36;;;;;;;0.00;0.00;;;;;;;21.73;72.67;151478.41;4925675;28;20726;-62
2023/07/10 01:27:05;;;;;;;0.00;0.00;;;;;;;21.72;72.50;151475.88;4936232;28;20255;-62
2023/07/10 01:29:36;;;;;;;0.00;0.00;;;;;;;21.70;72.27;151472.16;4933481;28;20239;-62
2023/07/10 01:32:05;;;;;;;0.00;0.00;;;;;;;21.76;72.25;151485.91;4918075;29;20739;-62
2023/07/10 01:34:38;;;;;;;2.38;1.65;;;;;;;21.76;71.96;151487.16;4918696;28;21199;-62
2023/07/10 01:37:07;;;;;;;7.33;4.10;;;;;;;21.79;71.43;151494.69;4937280;28;20225;-62
2023/07/10 01:39:38;;;;;;;7.63;4.43;;;;;;;21.80;71.35;151495.97;4931557;28;20234;-62
2023/07/10 01:42:06;;;;;;;7.97;4.53;;;;;;;21.95;73.52;151533.56;4934060;28;20282;-61
2023/07/10 01:44:35;;;;;;;7.53;4.23;;;;;;;21.97;71.85;151538.59;4935597;28;20250;-61
2023/07/10 01:47:03;;;;;;;7.07;4.43;;;;;;;22.02;71.41;151549.84;4938179;28;20702;-62
2023/07/10 01:49:34;;;;;;;10.90;5.03;;;;;;;22.05;70.22;151556.16;4936775;28;20229;-61
2023/07/10 01:52:04;;;;;;;5.73;4.20;;;;;;;22.12;70.21;151574.94;4922597;29;20560;-61
2023/07/10 01:54:32;;;;;;;6.73;4.40;;;;;;;22.15;70.57;151579.97;4919245;28;20717;-61
2023/07/10 01:56:58;;;;;;;5.53;4.37;;;;;;;22.15;70.50;151581.22;4939251;28;20222;-62
2023/07/10 01:59:25;;;;;;;8.73;4.43;;;;;;;22.15;70.29;151581.22;4919047;28;20699;-62
2023/07/10 02:01:53;;;;;;;8.73;4.60;;;;;;;22.18;68.99;151588.75;4938149;28;20647;-62
2023/07/10 02:04:20;;;;;;;7.43;4.37;;;;;;;22.27;71.81;151611.28;4920034;28;20239;-62
2023/07/10 02:06:47;;;;;;;7.30;4.40;;;;;;;22.26;73.23;151607.56;4937190;28;20239;-62
2023/07/10 02:09:13;;;;;;;8.77;4.50;;;;;;;22.25;72.92;151606.31;4934686;28;20726;-62
2023/07/10 02:11:42;;;;;;;8.87;4.87;;;;;;;22.20;75.02;151592.50;4938334;28;20229;-62
2023/07/10 02:14:09;;;;;;;9.63;5.03;;;;;;;22.20;76.25;151593.78;4923547;29;20362;-62
2023/07/10 02:16:36;;;;;;;8.07;4.60;;;;;;;22.13;81.35;151576.22;4932379;28;20262;-61
2023/07/10 02:19:04;;;;;;;10.97;4.90;;;;;;;22.07;80.50;151561.16;4937107;28;20231;-61
2023/07/10 02:21:31;;;;;;;9.83;4.57;;;;;;;22.08;80.34;151563.69;4936729;28;20597;-61
2023/07/10 02:23:58;;;;;;;7.43;4.17;;;;;;;22.11;77.13;151571.19;4926536;28;20235;-61
2023/07/10 02:26:26;;;;;;;7.07;4.20;;;;;;;22.11;76.27;151571.19;4916090;29;20299;-61
2023/07/10 02:28:54;;;;;;;6.43;4.30;;;;;;;22.07;75.44;151561.16;4916552;29;20220;-61
2023/07/10 02:31:21;;;;;;;13.90;5.83;;;;;;;22.13;75.76;151576.22;4918292;29;20237;-61
2023/07/10 02:33:48;;;;;;;11.87;5.00;;;;;;;22.18;75.88;151588.75;4935609;28;20237;-61
2023/07/10 02:36:15;;;;;;;10.47;4.90;;;;;;;22.22;77.43;151598.78;4934247;28;20274;-61
2023/07/10 02:38:42;;;;;;;14.43;5.40;;;;;;;22.38;76.15;151636.38;4920990;28;20242;-61
2023/07/10 02:41:12;;;;;;;10.37;5.90;;;;;;;22.41;76.50;151643.91;4936439;28;20243;-61
2023/07/10 02:43:38;;;;;;;7.30;5.20;;;;;;;22.40;76.03;151641.38;4932555;28;20236;-61
2023/07/10 02:46:10;;;;;;;7.83;4.80;;;;;;;22.41;76.51;151643.91;4938337;28;20709;-61
2023/07/10 02:48:37;;;;;;;9.63;4.87;;;;;;;22.39;76.61;151640.16;4937468;28;20233;-61
2023/07/10 02:51:03;;;;;;;8.07;4.60;;;;;;;22.42;77.20;151647.69;4931156;28;20242;-61
2023/07/10 02:53:30;;;;;;;9.50;5.53;;;;;;;22.38;77.91;151637.66;4918747;28;20269;-61
2023/07/10 02:55:56;;;;;;;9.47;6.13;;;;;;;22.37;77.06;151633.88;4937807;28;20238;-61
2023/07/10 02:58:23;;;;;;;7.43;4.67;;;;;;;22.37;78.42;151633.88;4937433;28;20309;-61
2023/07/10 03:03:54;;;;;;;11.77;5.90;;;;;;;22.41;77.69;151643.91;5662864;23;20233;-62
2023/07/10 03:06:23;;;;;;;9.07;5.37;;;;;;;22.44;77.44;151651.47;4964052;28;20226;-62
2023/07/10 03:08:49;;;;;;;6.87;5.10;;;;;;;22.46;78.17;151656.50;4963310;28;20730;-61
2023/07/10 03:11:18;;;;;;;10.60;5.33;;;;;;;22.51;77.67;151669.03;4957748;28;20589;-61
2023/07/10 03:13:45;;;;;;;12.87;5.50;;;;;;;22.54;77.98;151676.56;4977062;28;20234;-61
2023/07/10 03:16:15;;;;;;;12.00;5.80;;;;;;;22.54;78.77;151675.34;4959748;28;20229;-61
2023/07/10 03:18:41;;;;;;;8.83;5.70;;;;;;;22.57;78.92;151682.84;4946992;28;20304;-61
2023/07/10 03:21:13;;;;;;;9.33;5.50;;;;;;;22.62;79.12;151694.13;4966703;28;20228;-61
2023/07/10 03:23:40;;;;;;;9.20;5.77;;;;;;;22.70;78.52;151715.47;4949828;28;20569;-61
2023/07/10 03:26:12;;;;;;;9.00;5.47;;;;;;;22.74;78.79;151723.00;4950907;28;20235;-61
2023/07/10 03:28:39;;;;;;;10.00;5.80;;;;;;;22.78;78.50;151734.28;4965422;28;20241;-61
2023/07/10 03:31:30;;;;;;;8.83;5.10;;;;;;;22.83;78.91;151745.53;5167514;23;20280;-62
2023/07/10 03:33:57;;;;;;;8.83;5.07;;;;;;;22.89;78.59;151759.38;4970698;28;20237;-62
2023/07/10 03:36:25;;;;;;;9.67;5.63;;;;;;;22.95;78.31;151774.44;4984268;28;20559;-62
2023/07/10 03:38:51;;;;;;;8.83;5.17;;;;;;;22.97;80.14;151779.44;4987016;28;20229;-62
2023/07/10 03:41:18;;;;;;;7.90;5.70;;;;;;;22.87;79.80;151755.59;4983840;28;20292;-62
2023/07/10 03:43:44;;;;;;;7.97;4.93;;;;;;;22.84;80.09;151749.34;4986050;28;20256;-62
2023/07/10 03:46:12;;;;;;;9.07;5.17;;;;;;;22.78;80.40;151734.28;4986697;28;20217;-62
2023/07/10 03:48:38;;;;;;;9.47;5.37;;;;;;;22.84;81.16;151749.34;4983768;28;20262;-62
2023/07/10 03:51:09;;;;;;;10.57;5.10;;;;;;;22.85;81.36;151750.56;4986919;28;20233;-62
2023/07/10 03:53:37;;;;;;;8.13;5.03;;;;;;;22.78;80.99;151734.28;4983964;28;20232;-62
2023/07/10 03:56:04;;;;;;;9.33;5.37;;;;;;;22.76;80.94;151728.03;4985694;28;20238;-62
2023/07/10 03:58:32;;;;;;;10.80;5.70;;;;;;;22.76;80.82;151728.03;4984050;28;20314;-62
2023/07/10 04:01:00;;;;;;;7.63;5.00;;;;;;;22.82;80.19;151743.03;4986745;28;20239;-62
2023/07/10 04:03:29;;;;;;;6.50;4.57;;;;;;;22.84;79.66;151749.34;4965946;28;20704;-62
2023/07/10 04:05:58;;;;;;;10.80;5.07;;;;;;;22.83;79.33;151745.53;4986241;28;20238;-62
2023/07/10 04:08:27;;;;;;;7.20;5.20;;;;;;;22.86;79.32;151753.06;4983396;28;20728;-62
2023/07/10 04:10:56;;;;;;;11.80;5.37;;;;;;;22.87;79.03;151755.59;4986312;28;20291;-62
2023/07/10 04:13:23;;;;;;;7.77;5.07;;;;;;;22.91;79.95;151764.38;4983401;28;20238;-62
2023/07/10 04:15:58;;;;;;;8.10;5.20;;;;;;;22.87;80.87;151754.34;4986470;28;20240;-62
2023/07/10 04:18:27;;;;;;;9.13;4.90;;;;;;;22.87;82.42;151754.34;4983130;28;20700;-62
2023/07/10 04:20:53;;;;;;;10.20;5.60;;;;;;;22.87;81.67;151754.34;4986367;28;20288;-61
2023/07/10 04:23:20;;;;;;;6.77;5.03;;;;;;;22.81;82.84;151741.81;4983209;28;20240;-61
2023/07/10 04:25:47;;;;;;;8.37;5.50;;;;;;;22.77;85.67;151731.78;4985951;28;20290;-61
2023/07/10 04:28:15;;;;;;;9.80;5.97;;;;;;;22.70;87.51;151714.19;4983451;28;20828;-61
2023/07/10 04:30:41;;;;;;;9.40;6.03;;;;;;;22.65;87.07;151702.94;4985997;28;20661;-61
2023/07/10 04:33:11;;;;;;;11.73;5.30;;;;;;;22.65;87.50;151701.66;4986121;28;20564;-61
2023/07/10 04:35:38;;;;;;;8.77;5.33;;;;;;;22.63;88.09;151697.91;4983304;28;20226;-61
2023/07/10 04:38:04;;;;;;;8.40;5.63;;;;;;;22.65;88.06;151702.94;4986066;28;20769;-62
2023/07/10 04:40:31;;;;;;;10.20;5.63;;;;;;;22.68;88.21;151709.19;4982715;28;20230;-62
2023/07/10 04:42:57;;;;;;;10.70;5.37;;;;;;;22.73;87.84;151721.72;4984105;28;20321;-62
2023/07/10 04:45:25;;;;;;;10.33;5.57;;;;;;;22.75;87.90;151726.75;4981813;28;20280;-62
2023/07/10 04:47:52;;;;;;;9.43;5.23;;;;;;;22.76;86.84;151729.25;4986115;28;20610;-62
2023/07/10 04:50:18;;;;;;;6.93;4.57;;;;;;;22.81;86.46;151740.53;4964862;28;20287;-62
2023/07/10 04:52:45;;;;;;;7.00;5.40;;;;;;;22.87;85.87;151755.59;4984671;28;20236;-62
2023/07/10 04:55:12;;;;;;;9.07;5.00;;;;;;;22.98;85.19;151781.94;4985453;28;20217;-62
2023/07/10 04:57:38;;;;;;;5.33;4.73;;;;;;;23.07;84.59;151804.53;4983391;28;21149;-62
2023/07/10 05:00:06;;;;;;;9.43;5.03;;;;;;;23.14;85.40;151822.09;4968210;28;20243;-62
2023/07/10 05:02:34;;;;;;;12.23;4.67;;;;;;;23.28;84.84;151854.78;4981595;28;20252;-62
2023/07/10 05:05:01;;;;;;;12.40;6.17;;;;;;;23.43;83.26;151892.38;4985622;28;20225;-62
2023/07/10 05:07:27;;;;;;;7.40;4.43;;;;;;;23.54;83.16;151918.78;4982406;28;20223;-62
2023/07/10 05:09:54;;;;;;;9.77;5.67;;;;;;;23.71;83.03;151958.94;4985477;28;20303;-62
2023/07/10 05:12:20;;;;;;;7.27;5.00;;;;;;;23.78;83.66;151975.22;4982282;28;20716;-62
2023/07/10 05:14:47;;;;;;;9.60;6.00;;;;;;;23.87;82.74;151999.06;4984683;28;20239;-62
2023/07/10 05:17:14;;;;;;;6.60;5.10;;;;;;;24.02;80.78;152034.25;4981353;28;20231;-62
2023/07/10 05:19:42;;;;;;;10.03;5.60;;;;;;;24.18;80.19;152074.44;4984077;28;20244;-62
2023/07/10 05:22:08;;;;;;;8.73;4.73;;;;;;;24.19;81.65;152075.72;4985062;28;20291;-62
2023/07/10 05:24:35;;;;;;;7.73;5.17;;;;;;;24.30;82.26;152103.34;4981620;28;20235;-62
2023/07/10 05:27:01;;;;;;;11.50;5.40;;;;;;;24.35;82.04;152113.38;4983523;28;20243;-62
2023/07/10 05:29:28;;;;;;;6.47;4.60;;;;;;;24.40;81.86;152127.16;4982263;28;20709;-62
2023/07/10 05:31:55;;;;;;;9.63;5.30;;;;;;;24.45;81.07;152138.44;4984460;28;20557;-62
2023/07/10 05:34:23;;;;;;;11.47;5.27;;;;;;;24.46;80.74;152142.22;4982222;28;20225;-62
2023/07/10 05:36:51;;;;;;;7.00;5.27;;;;;;;24.49;81.44;152147.25;4984274;28;20736;-62
2023/07/10 05:39:18;;;;;;;12.40;4.80;;;;;;;24.29;82.23;152099.53;4981495;28;20234;-62
2023/07/10 05:41:44;;;;;;;8.13;4.60;;;;;;;24.42;80.12;152130.91;4984485;28;20280;-62
2023/07/10 05:44:11;;;;;;;7.53;4.73;;;;;;;24.51;80.25;152153.50;4984660;28;20242;-62
2023/07/10 05:46:37;;;;;;;7.63;4.87;;;;;;;24.54;78.57;152161.06;4982724;28;20331;-62
2023/07/10 05:49:04;;;;;;;8.80;4.67;;;;;;;24.70;78.27;152198.72;4984279;28;20263;-62
2023/07/10 05:51:31;;;;;;;10.67;5.10;;;;;;;24.82;76.23;152227.69;4982314;28;20240;-62
2023/07/10 05:53:58;;;;;;;8.67;4.60;;;;;;;25.00;76.26;152271.63;4984867;28;20218;-62
2023/07/10 05:56:25;;;;;;;8.33;4.50;;;;;;;25.13;76.70;152304.28;4982284;28;20646;-62
2023/07/10 05:58:52;;;;;;;8.07;4.87;;;;;;;25.24;76.69;152330.63;4984977;28;20235;-62
2023/07/10 06:01:18;;;;;;;9.03;5.13;;;;;;;25.33;73.07;152352.00;4981818;28;20303;-62
2023/07/10 06:03:45;;;;;;;8.33;5.10;;;;;;;25.41;72.57;152370.84;4985013;28;20236;-62
2023/07/10 06:06:12;;;;;;;9.00;5.23;;;;;;;25.50;72.53;152393.50;4984082;28;20261;-62
2023/07/10 06:08:39;;;;;;;7.95;5.40;;;;;;;25.62;72.49;152423.66;4982346;28;20243;-63
2023/07/10 06:11:13;;;;;;;9.02;5.75;;;;;;;25.74;72.33;152452.53;4984509;28;20738;-62
2023/07/10 06:13:40;;;;;;;10.17;5.73;;;;;;;25.75;72.04;152453.81;4981887;28;20240;-63
2023/07/10 06:16:11;;;;;;;8.83;5.13;;;;;;;25.86;72.78;152480.19;4984440;28;20722;-62
2023/07/10 06:18:38;;;;;;;9.50;5.07;;;;;;;25.94;72.90;152500.28;4981141;28;20232;-62
2023/07/10 06:21:06;;;;;;;10.07;5.00;;;;;;;26.05;71.60;152527.94;4983985;28;20238;-62
2023/07/10 06:23:33;;;;;;;7.82;4.93;;;;;;;26.13;68.86;152546.75;4981093;28;20238;-62
2023/07/10 06:26:00;;;;;;;9.67;4.73;;;;;;;26.27;66.44;152580.75;4984825;28;20726;-62
2023/07/10 06:28:32;;;;;;;10.37;5.00;;;;;;;26.17;64.70;152555.63;4983564;28;20227;-62
2023/07/10 06:31:00;;;;;;;10.37;4.57;;;;;;;26.22;64.65;152569.44;4988106;28;20254;-62
2023/07/10 06:33:29;;;;;;;9.90;5.20;;;;;;;26.18;64.58;152559.38;4985227;28;20233;-62
2023/07/10 06:35:56;;;;;;;8.43;5.13;;;;;;;26.06;65.66;152530.44;4988108;28;20238;-62
2023/07/10 06:38:23;;;;;;;5.83;4.40;;;;;;;26.18;66.07;152558.13;4984978;28;20294;-62
2023/07/10 06:40:50;;;;;;;5.17;4.40;;;;;;;26.43;65.80;152618.47;4987706;28;20231;-62
2023/07/10 06:43:18;;;;;;;7.83;4.70;;;;;;;26.43;64.64;152619.69;4984393;28;20230;-62
2023/07/10 06:45:46;;;;;;;5.67;4.60;;;;;;;26.48;64.40;152632.28;4988298;28;20243;-62
2023/07/10 06:48:13;;;;;;;9.20;4.93;;;;;;;26.55;65.23;152647.34;4985232;28;20320;-62
2023/07/10 06:50:40;;;;;;;11.27;4.57;;;;;;;26.53;65.54;152643.56;4988015;28;20235;-62
2023/07/10 06:53:07;;;;;;;10.60;5.73;;;;;;;26.51;65.45;152638.53;4986679;28;21485;-62
2023/07/10 06:55:34;;;;;;;10.03;5.43;;;;;;;26.57;65.54;152653.63;4985126;28;20234;-62
2023/07/10 06:58:01;;;;;;;8.33;5.53;;;;;;;26.45;65.28;152624.72;4987381;28;20232;-62
2023/07/10 07:00:28;;;;;;;8.73;5.63;;;;;;;26.52;65.35;152642.31;4983072;28;20238;-62
2023/07/10 07:02:55;;;;;;;15.63;5.80;;;;;;;26.27;66.44;152580.75;4987290;28;20246;-62
2023/07/10 07:05:22;;;;;;;13.27;6.10;;;;;;;26.00;68.35;152515.38;4984708;28;20243;-62
2023/07/10 07:07:49;;;;;;;8.63;5.77;;;;;;;26.38;66.94;152608.41;4987394;28;20243;-62
2023/07/10 07:10:16;;;;;;;7.83;5.43;;;;;;;26.40;65.40;152610.94;4984540;28;20246;-62
2023/07/10 07:12:43;;;;;;;10.63;5.67;;;;;;;26.40;65.76;152610.94;4987749;28;20924;-62
2023/07/10 07:15:11;;;;;;;7.80;5.03;;;;;;;26.41;64.86;152613.44;4987167;28;20290;-62
2023/07/10 07:17:38;;;;;;;9.37;5.60;;;;;;;26.39;65.95;152609.66;4981664;28;20239;-62
2023/07/10 07:20:08;;;;;;;11.37;6.20;;;;;;;26.21;66.11;152566.91;4987617;28;20235;-62
2023/07/10 07:22:34;;;;;;;10.43;5.78;;;;;;;26.25;65.93;152575.72;4984518;28;20235;-62
2023/07/10 07:25:01;;;;;;;11.20;5.43;;;;;;;26.67;64.56;152677.53;4986314;28;20239;-62
2023/07/10 07:27:31;;;;;;;9.17;5.00;;;;;;;26.83;64.45;152715.28;4983503;28;20231;-62
2023/07/10 07:29:58;;;;;;;10.63;6.20;;;;;;;26.95;63.48;152746.69;4986037;28;20236;-62
2023/07/10 07:32:24;;;;;;;9.68;5.70;;;;;;;26.90;63.33;152732.88;4983215;28;20704;-62
2023/07/10 07:34:51;;;;;;;8.77;5.40;;;;;;;26.90;63.76;152734.13;4986769;28;20294;-62
2023/07/10 07:37:19;;;;;;;11.07;5.97;;;;;;;27.04;64.03;152768.06;4964646;28;20224;-62
2023/07/10 07:39:45;;;;;;;10.55;5.55;;;;;;;26.99;63.23;152754.25;4986301;28;20234;-62
2023/07/10 07:42:12;;;;;;;9.55;5.95;;;;;;;26.99;64.43;152754.25;4986426;28;20230;-62
2023/07/10 07:44:38;;;;;;;10.60;7.10;;;;;;;26.96;64.91;152749.22;4984573;28;20235;-62
2023/07/10 07:47:06;;;;;;;12.70;6.13;;;;;;;27.16;65.16;152795.72;4985460;28;20237;-62
2023/07/10 07:49:32;;;;;;;10.20;6.07;;;;;;;27.59;63.26;152901.41;4983619;28;30559;-62
2023/07/10 07:51:59;;;;;;;11.63;6.40;;;;;;;27.52;63.12;152883.78;4987183;28;20238;-62
2023/07/10 07:54:27;;;;;;;7.90;5.80;;;;;;;27.92;62.98;152981.88;4966089;28;20231;-62
2023/07/10 07:56:55;;;;;;;8.20;5.90;;;;;;;28.06;60.18;153015.84;4987022;28;20235;-62
2023/07/10 07:59:22;;;;;;;7.85;5.80;;;;;;;28.12;60.39;153030.97;4984372;28;21188;-62
2023/07/10 08:01:50;;;;;;;7.93;6.28;;;;;;;28.25;59.45;153062.41;4985923;28;20273;-62
2023/07/10 08:04:17;;;;;;;10.93;6.88;;;;;;;28.37;58.46;153091.34;4983001;28;20238;-62
2023/07/10 08:06:43;;;;;;;7.32;5.68;;;;;;;28.07;59.81;153018.34;4987045;28;20285;-62
2023/07/10 08:09:10;;;;;;;12.77;5.72;;;;;;;28.11;58.90;153027.13;4986106;28;20242;-62
2023/07/10 08:11:38;;;;;;;6.63;5.47;;;;;;;28.08;59.09;153019.63;4983338;28;20239;-62
2023/07/10 08:14:05;;;;;;;9.18;6.10;;;;;;;28.39;58.18;153095.13;4986193;28;20240;-62
2023/07/10 08:16:31;;;;;;;8.88;5.57;;;;;;;28.22;58.85;153054.84;4982833;28;20236;-62
2023/07/10 08:18:58;;;;;;;7.72;6.10;;;;;;;28.57;57.41;153139.19;4986855;28;20227;-62
2023/07/10 08:21:24;;;;;;;11.38;5.78;;;;;;;28.43;57.86;153105.19;4983627;28;20635;-62
2023/07/10 08:23:51;;;;;;;8.73;5.53;;;;;;;28.68;56.80;153166.81;4986028;28;20719;-62
2023/07/10 08:26:18;;;;;;;9.90;5.47;;;;;;;28.82;56.53;153199.56;4980505;28;20691;-62
2023/07/10 08:28:46;;;;;;;8.38;5.65;;;;;;;28.60;57.56;153145.44;4985731;28;20588;-62
2023/07/10 08:31:12;;;;;;;6.88;5.68;;;;;;;28.92;55.81;153223.50;4978449;28;21900;-63
2023/07/10 08:33:39;;;;;;;12.27;5.38;;;;;;;28.68;56.61;153166.81;4983622;28;20238;-63
2023/07/10 08:36:12;;;;;;;8.48;5.68;;;;;;;28.79;55.89;153192.03;4986167;28;20723;-63
2023/07/10 08:38:39;;;;;;;13.00;5.50;;;;;;;28.69;56.07;153169.31;4982748;28;20283;-63
2023/07/10 08:41:19;;;;;;;10.00;5.47;;;;;;;28.73;56.74;153178.16;4985173;28;20324;-63
2023/07/10 08:43:47;;;;;;;10.77;5.88;;;;;;;27.52;61.15;152885.06;4982627;28;20228;-63
2023/07/10 08:46:18;;;;;;;9.70;5.25;;;;;;;28.13;58.83;153033.50;4981998;28;20221;-63
2023/07/10 08:48:51;;;;;;;9.30;6.30;;;;;;;28.10;59.23;153025.91;4984355;28;20251;-63
2023/07/10 08:51:34;;;;;;;10.60;6.18;;;;;;;28.25;58.24;153061.16;4981205;28;20227;-63
2023/07/10 08:54:05;;;;;;;9.32;6.00;;;;;;;28.13;58.64;153033.50;4983289;28;21590;-63
2023/07/10 08:56:35;;;;;;;9.63;5.43;;;;;;;27.87;60.11;152968.03;4981427;28;20232;-62
2023/07/10 08:59:15;;;;;;;11.02;7.00;;;;;;;27.93;60.32;152984.41;4985326;28;20232;-63
2023/07/10 09:01:46;;;;;;;7.82;5.70;;;;;;;28.38;58.40;153092.59;4981353;28;20224;-62
2023/07/10 09:04:16;;;;;;;9.10;6.13;;;;;;;27.99;59.95;152999.50;4960361;28;20235;-63
2023/07/10 09:06:47;;;;;;;10.85;6.40;;;;;;;28.30;58.84;153073.75;4984109;28;20219;-63
2023/07/10 09:09:36;;;;;;;11.85;5.80;;;;;;;28.09;60.87;153023.38;4983009;28;20252;-63
2023/07/10 09:12:06;;;;;;;11.68;6.40;;;;;;;28.54;58.17;153131.63;4984777;28;20262;-63
2023/07/10 09:14:42;;;;;;;11.85;6.00;;;;;;;28.56;60.42;153137.88;4982397;28;20666;-63
2023/07/10 09:17:20;;;;;;;8.60;5.80;;;;;;;28.69;59.31;153169.31;4982999;28;20236;-63
2023/07/10 09:19:52;;;;;;;8.88;5.88;;;;;;;28.93;58.99;153227.25;4982962;28;20236;-63
2023/07/10 09:22:19;;;;;;;8.20;5.93;;;;;;;29.08;56.93;153262.50;4981598;28;20278;-63
2023/07/10 09:24:46;;;;;;;13.02;6.53;;;;;;;29.39;57.25;153338.06;4984554;28;20235;-63
2023/07/10 09:27:14;;;;;;;12.60;5.80;;;;;;;29.81;55.41;153440.00;4983319;28;20302;-63
2023/07/10 09:29:46;;;;;;;9.35;6.10;;;;;;;29.14;57.23;153277.59;4982684;28;20307;-63
2023/07/10 09:32:14;;;;;;;13.63;6.65;;;;;;;29.10;56.60;153267.53;4981415;28;20229;-62
2023/07/10 09:34:45;;;;;;;9.98;6.72;;;;;;;29.44;55.23;153351.88;4982630;28;20225;-63
2023/07/10 09:37:14;;;;;;;9.65;6.32;;;;;;;29.63;54.31;153397.19;4985131;28;20236;-63
2023/07/10 09:39:41;;;;;;;12.98;6.38;;;;;;;29.53;55.05;153372.03;4981647;28;20244;-63
2023/07/10 09:42:14;;;;;;;8.65;5.90;;;;;;;29.88;53.31;153457.63;4984761;28;20620;-63
2023/07/10 09:44:47;;;;;;;10.80;6.22;;;;;;;30.13;53.70;153519.34;4981467;28;20255;-63
2023/07/10 09:47:16;;;;;;;6.85;5.63;;;;;;;30.49;52.93;153606.22;4980343;28;20280;-63
2023/07/10 09:49:46;;;;;;;8.25;5.70;;;;;;;30.65;52.19;153645.31;4985001;28;20796;-64
2023/07/10 09:52:21;;;;;;;9.90;6.18;;;;;;;30.74;52.87;153667.94;4983615;28;20229;-63
2023/07/10 09:54:48;;;;;;;11.00;6.38;;;;;;;30.25;52.12;153548.28;4983575;28;20232;-63
2023/07/10 09:57:17;;;;;;;12.55;6.32;;;;;;;30.13;52.54;153519.34;4981906;28;20236;-63
2023/07/10 09:59:50;;;;;;;10.20;6.18;;;;;;;29.85;53.37;153451.31;4956822;28;20258;-63
2023/07/10 10:02:21;;;;;;;10.50;6.03;;;;;;;29.56;53.94;153380.84;4980425;28;20263;-63
2023/07/10 10:04:53;;;;;;;7.53;5.93;;;;;;;29.70;53.80;153414.81;4987912;28;20239;-63
2023/07/10 10:07:22;;;;;;;8.10;6.72;;;;;;;29.48;54.04;153359.44;4985771;28;20232;-63
2023/07/10 10:10:03;;;;;;;7.50;5.90;;;;;;;29.57;54.28;153383.38;4988993;28;20240;-63
2023/07/10 10:12:34;;;;;;;10.43;6.57;;;;;;;29.02;56.56;153248.69;4985707;28;20624;-63
2023/07/10 10:15:08;;;;;;;8.38;6.25;;;;;;;28.76;57.14;153185.75;4986804;28;20236;-62
2023/07/10 10:17:40;;;;;;;9.60;6.40;;;;;;;28.86;57.68;153210.91;4983090;28;20311;-63
2023/07/10 10:20:15;;;;;;;11.13;6.22;;;;;;;29.44;54.50;153351.88;4988139;28;20232;-63
2023/07/10 10:22:42;;;;;;;10.70;5.97;;;;;;;29.55;55.11;153378.34;4985887;28;20237;-64
2023/07/10 10:25:14;;;;;;;8.93;6.40;;;;;;;29.73;54.43;153421.09;4988221;28;20248;-63
2023/07/10 10:27:49;;;;;;;8.13;6.22;;;;;;;30.07;52.44;153504.25;4984740;28;20295;-63
2023/07/10 10:30:33;;;;;;;8.90;6.15;;;;;;;29.68;53.25;153409.78;4984846;28;20287;-64
2023/07/10 10:33:37;;;;;;;12.05;6.45;;;;;;;29.65;52.76;153401.00;4986338;28;20381;-64
2023/07/10 10:36:20;;;;;;;9.30;5.80;;;;;;;29.00;53.15;153244.88;4985357;28;20243;-64
2023/07/10 10:38:52;;;;;;;6.28;5.68;;;;;;;29.44;53.25;153351.88;4985970;28;20244;-64
2023/07/10 10:41:33;;;;;;;7.55;6.18;;;;;;;30.06;50.73;153500.47;4967586;28;20655;-64
2023/07/10 10:44:06;;;;;;;9.18;5.93;;;;;;;30.18;50.33;153531.94;4987325;28;20727;-64
2023/07/10 10:46:53;;;;;;;10.00;5.65;;;;;;;30.44;50.33;153593.63;4984323;28;20229;-64
2023/07/10 10:49:39;;;;;;;10.00;6.13;;;;;;;29.83;50.91;153445.03;4984347;28;20271;-64
2023/07/10 10:52:15;;;;;;;8.85;6.38;;;;;;;30.24;50.22;153545.75;4986666;28;20233;-64
2023/07/10 10:54:52;;;;;;;8.35;6.20;;;;;;;30.54;47.65;153618.81;4984357;28;20225;-64
2023/07/10 10:57:33;;;;;;;8.73;6.15;;;;;;;29.86;49.25;153452.59;4985508;28;20235;-64
2023/07/10 11:00:21;;;;;;;7.70;5.97;;;;;;;30.36;48.80;153574.75;4986931;28;20252;-64
2023/07/10 11:03:00;;;;;;;13.13;6.63;;;;;;;30.26;49.75;153550.81;4983588;28;20244;-64
2023/07/10 11:05:35;;;;;;;8.77;6.05;;;;;;;30.56;49.36;153623.84;4983519;28;20237;-64
2023/07/10 11:08:09;;;;;;;8.95;6.30;;;;;;;30.37;49.08;153576.00;4986348;28;20224;-64
2023/07/10 11:10:41;;;;;;;6.95;5.82;;;;;;;30.74;50.52;153666.72;4984604;28;20229;-64
2023/07/10 11:13:19;;;;;;;7.70;5.82;;;;;;;30.56;49.15;153623.84;4987033;28;20304;-64
2023/07/10 11:15:45;;;;;;;9.43;6.40;;;;;;;30.12;50.50;153515.59;4983338;28;20549;-64
2023/07/10 11:18:15;;;;;;;11.50;6.20;;;;;;;30.43;49.43;153592.38;4986889;28;20292;-64
2023/07/10 11:20:43;;;;;;;10.75;6.13;;;;;;;30.38;49.24;153579.78;4985051;28;20300;-64
2023/07/10 11:23:36;;;;;;;10.63;6.47;;;;;;;30.28;51.42;153554.59;4986864;28;20398;-64
2023/07/10 11:26:07;;;;;;;10.15;6.85;;;;;;;30.68;47.86;153652.88;4971754;28;20553;-64
2023/07/10 11:28:34;;;;;;;8.52;6.60;;;;;;;30.66;48.17;153646.56;4983954;28;20252;-64
2023/07/10 11:31:24;;;;;;;8.10;6.85;;;;;;;31.10;46.83;153753.59;4969177;28;20744;-64
2023/07/10 11:33:54;;;;;;;8.93;6.13;;;;;;;31.14;43.34;153764.97;4983053;28;20320;-64
2023/07/10 11:36:38;;;;;;;8.73;5.97;;;;;;;30.88;45.99;153700.69;4984465;28;20248;-64